createdAt,value
2019-04-11T00:00:40.181Z,58.24
2019-04-11T00:01:45.207Z,58.45
2019-04-11T00:02:41.139Z,58.11
2019-04-11T00:03:40.126Z,58.24
2019-04-11T00:04:40.181Z,58.24
2019-04-11T00:05:41.257Z,58.45
2019-04-11T00:06:40.097Z,58.24
2019-04-11T00:07:40.546Z,58.34
2019-04-11T00:08:45.966Z,58.14
2019-04-11T00:09:40.854Z,58.24
2019-04-11T00:10:40.076Z,58.24
2019-04-11T00:11:40.038Z,58.65
2019-04-11T00:12:40.950Z,58.75
2019-04-11T00:13:41.045Z,58.24
2019-04-11T00:14:40.137Z,58.47
2019-04-11T00:15:40.465Z,58.89
2019-04-11T00:16:39.987Z,58.47
2019-04-11T00:17:39.975Z,58.89
2019-04-11T00:18:41.009Z,58.58
2019-04-11T00:19:45.383Z,58.58
2019-04-11T00:20:40.286Z,58.37
2019-04-11T00:21:39.937Z,58.37
2019-04-11T00:22:39.918Z,58.26
2019-04-11T00:23:40.547Z,58.16
2019-04-11T00:24:39.897Z,58.06
2019-04-11T00:25:39.982Z,58.47
2019-04-11T00:26:40.287Z,58.26
2019-04-11T00:27:39.859Z,58.16
2019-04-11T00:28:39.848Z,59.19
2019-04-11T00:29:40.716Z,58.47
2019-04-11T00:30:44.857Z,58.47
2019-04-11T00:31:41.025Z,58.98
2019-04-11T00:32:39.806Z,59.22
2019-04-11T00:33:40.421Z,58.40
2019-04-11T00:34:39.786Z,59.12
2019-04-11T00:35:39.942Z,59.53
2019-04-11T00:36:40.788Z,59.53
2019-04-11T00:37:39.745Z,59.33
2019-04-11T00:38:40.288Z,59.63
2019-04-11T00:39:39.749Z,59.22
2019-04-11T00:40:39.723Z,59.42
2019-04-11T00:41:44.743Z,59.84
2019-04-11T00:42:40.848Z,59.53
2019-04-11T00:43:42.148Z,59.63
2019-04-11T00:44:39.679Z,59.84
2019-04-11T00:45:40.085Z,59.84
2019-04-11T00:46:40.493Z,59.63
2019-04-11T00:47:39.793Z,60.28
2019-04-11T00:48:39.714Z,60.46
2019-04-11T00:49:40.759Z,60.07
2019-04-11T00:50:39.602Z,59.77
2019-04-11T00:51:40.191Z,60.38
2019-04-11T00:52:45.476Z,59.97
2019-04-11T00:53:40.365Z,60.28
2019-04-11T00:54:40.614Z,60.59
2019-04-11T00:55:39.834Z,60.49
2019-04-11T00:56:40.072Z,60.28
2019-04-11T00:57:39.531Z,60.49
2019-04-11T00:58:39.525Z,60.49
2019-04-11T00:59:40.624Z,59.77
2019-04-11T01:00:39.737Z,60.89
2019-04-11T01:01:39.499Z,61.00
2019-04-11T01:02:41.492Z,60.89
2019-04-11T01:03:45.422Z,60.79
2019-04-11T01:04:39.449Z,60.89
2019-04-11T01:05:39.522Z,60.89
2019-04-11T01:06:40.459Z,61.03
2019-04-11T01:07:39.424Z,61.24
2019-04-11T01:08:39.920Z,61.13
2019-04-11T01:09:40.217Z,61.24
2019-04-11T01:10:39.443Z,61.03
2019-04-11T01:11:40.391Z,61.13
2019-04-11T01:12:39.381Z,61.85
2019-04-11T01:13:47.241Z,60.82
2019-04-11T01:14:45.357Z,61.24
2019-04-11T01:15:39.324Z,61.13
2019-04-11T01:16:39.318Z,61.85
2019-04-11T01:17:39.323Z,61.75
2019-04-11T01:18:40.328Z,61.75
2019-04-11T01:19:39.280Z,61.54
2019-04-11T01:20:39.763Z,61.75
2019-04-11T01:21:40.320Z,61.33
2019-04-11T01:22:40.481Z,61.68
2019-04-11T01:23:39.484Z,61.88
2019-04-11T01:24:39.884Z,61.33
2019-04-11T01:25:44.402Z,61.57
2019-04-11T01:26:39.205Z,61.78
2019-04-11T01:27:39.989Z,61.98
2019-04-11T01:28:39.183Z,61.98
2019-04-11T01:29:39.815Z,61.88
2019-04-11T01:30:39.158Z,61.57
2019-04-11T01:31:39.903Z,60.95
2019-04-11T01:32:40.225Z,61.88
2019-04-11T01:33:40.089Z,61.88
2019-04-11T01:34:40.368Z,61.36
2019-04-11T01:35:39.508Z,61.78
2019-04-11T01:36:45.081Z,61.50
2019-04-11T01:37:39.835Z,61.50
2019-04-11T01:38:39.071Z,61.29
2019-04-11T01:39:39.132Z,61.29
2019-04-11T01:40:39.945Z,61.29
2019-04-11T01:41:39.037Z,61.70
2019-04-11T01:42:39.696Z,61.80
2019-04-11T01:43:43.508Z,61.68
2019-04-11T01:44:41.005Z,61.29
2019-04-11T01:45:38.996Z,61.47
2019-04-11T01:46:38.986Z,61.68
2019-04-11T01:47:44.776Z,61.40
2019-04-11T01:48:39.637Z,61.80
2019-04-11T01:49:38.953Z,61.91
2019-04-11T01:50:39.011Z,62.12
2019-04-11T01:51:40.030Z,61.78
2019-04-11T01:52:38.937Z,62.01
2019-04-11T01:53:40.546Z,61.91
2019-04-11T01:54:39.593Z,61.80
2019-04-11T01:55:38.903Z,61.70
2019-04-11T01:56:39.197Z,62.22
2019-04-11T01:57:38.866Z,61.91
2019-04-11T01:58:43.893Z,62.12
2019-04-11T01:59:39.611Z,62.12
2019-04-11T02:00:39.842Z,61.91
2019-04-11T02:01:39.078Z,62.12
2019-04-11T02:02:38.953Z,61.91
2019-04-11T02:03:39.344Z,62.22
2019-04-11T02:04:38.798Z,62.43
2019-04-11T02:05:38.784Z,62.53
2019-04-11T02:06:38.763Z,61.94
2019-04-11T02:07:38.769Z,62.01
2019-04-11T02:08:39.655Z,61.80
2019-04-11T02:09:44.222Z,61.91
2019-04-11T02:10:39.130Z,62.46
2019-04-11T02:11:39.470Z,62.12
2019-04-11T02:12:39.392Z,62.15
2019-04-11T02:13:39.683Z,62.15
2019-04-11T02:14:39.590Z,62.35
2019-04-11T02:15:38.783Z,62.25
2019-04-11T02:16:38.656Z,62.25
2019-04-11T02:17:39.096Z,62.25
2019-04-11T02:18:39.382Z,62.46
2019-04-11T02:19:38.623Z,62.04
2019-04-11T02:20:43.632Z,62.66
2019-04-11T02:21:38.605Z,61.83
2019-04-11T02:22:38.596Z,62.35
2019-04-11T02:23:39.356Z,62.66
2019-04-11T02:24:39.619Z,62.69
2019-04-11T02:25:38.772Z,62.46
2019-04-11T02:26:38.549Z,62.76
2019-04-11T02:27:38.555Z,63.00
2019-04-11T02:28:39.043Z,63.18
2019-04-11T02:29:38.512Z,62.79
2019-04-11T02:30:39.369Z,62.97
2019-04-11T02:31:44.546Z,62.55
2019-04-11T02:32:40.228Z,62.55
2019-04-11T02:33:38.941Z,62.87
2019-04-11T02:34:39.724Z,62.69
2019-04-11T02:35:40.014Z,63.07
2019-04-11T02:36:38.645Z,63.18
2019-04-11T02:37:39.929Z,63.00
2019-04-11T02:38:39.101Z,62.90
2019-04-11T02:39:38.690Z,62.90
2019-04-11T02:40:38.756Z,63.21
2019-04-11T02:41:39.826Z,63.10
2019-04-11T02:42:43.512Z,63.31
2019-04-11T02:43:40.694Z,63.21
2019-04-11T02:44:56.503Z,63.10
2019-04-11T02:45:51.691Z,63.31
2019-04-11T02:46:48.197Z,63.21
2019-04-11T02:47:41.983Z,63.10
2019-04-11T02:48:40.675Z,63.51
2019-04-11T02:49:39.244Z,63.44
2019-04-11T02:50:39.300Z,63.44
2019-04-11T02:51:38.920Z,63.85
2019-04-11T02:52:39.935Z,63.54
2019-04-11T02:53:43.278Z,63.65
2019-04-11T02:54:38.872Z,63.96
2019-04-11T02:55:38.225Z,63.54
2019-04-11T02:56:38.226Z,64.37
2019-04-11T02:57:38.655Z,63.75
2019-04-11T02:58:39.262Z,63.23
2019-04-11T02:59:38.912Z,63.72
2019-04-11T03:00:40.003Z,63.65
2019-04-11T03:01:39.762Z,63.85
2019-04-11T03:02:39.419Z,63.96
2019-04-11T03:03:39.575Z,63.85
2019-04-11T03:04:43.959Z,64.27
2019-04-11T03:05:39.391Z,63.75
2019-04-11T03:06:39.656Z,63.89
2019-04-11T03:07:38.172Z,63.85
2019-04-11T03:08:38.784Z,64.06
2019-04-11T03:09:39.335Z,64.06
2019-04-11T03:10:38.061Z,63.75
2019-04-11T03:11:38.771Z,64.17
2019-04-11T03:12:38.824Z,63.65
2019-04-11T03:13:38.460Z,64.27
2019-04-11T03:14:50.161Z,64.09
2019-04-11T03:16:02.146Z,64.30
2019-04-11T03:16:51.774Z,64.06
2019-04-11T03:17:43.217Z,64.06
2019-04-11T03:18:54.993Z,64.40
2019-04-11T03:19:53.689Z,64.09
2019-04-11T03:20:45.687Z,63.99
2019-04-11T03:21:41.740Z,64.20
2019-04-11T03:22:40.463Z,64.20
2019-04-11T03:23:39.590Z,64.92
2019-04-11T03:24:38.610Z,64.20
2019-04-11T03:25:38.484Z,64.09
2019-04-11T03:26:43.600Z,64.09
2019-04-11T03:27:37.886Z,64.20
2019-04-11T03:28:38.824Z,64.40
2019-04-11T03:29:37.992Z,64.30
2019-04-11T03:30:56.932Z,64.61
2019-04-11T03:32:17.639Z,64.40
2019-04-11T03:34:39.829Z,64.09
2019-04-11T03:35:31.617Z,64.51
2019-04-11T03:37:21.055Z,64.30
2019-04-11T03:38:07.546Z,64.30
2019-04-11T03:39:02.349Z,64.40
2019-04-11T03:39:59.272Z,64.51
2019-04-11T03:40:57.784Z,64.64
2019-04-11T03:41:54.697Z,64.40
2019-04-11T03:42:57.060Z,64.23
2019-04-11T03:43:51.092Z,64.20
2019-04-11T03:44:46.374Z,65.12
2019-04-11T03:45:58.952Z,65.02
2019-04-11T03:46:57.416Z,65.05
2019-04-11T03:47:52.545Z,64.32
2019-04-11T03:48:57.329Z,65.05
2019-04-11T03:49:46.705Z,64.95
2019-04-11T03:50:39.412Z,64.74
2019-04-11T03:51:40.431Z,64.84
2019-04-11T03:52:37.592Z,64.64
2019-04-11T03:53:37.599Z,64.64
2019-04-11T03:54:38.889Z,64.74
2019-04-11T03:55:38.955Z,64.53
2019-04-11T03:56:38.903Z,65.05
2019-04-11T03:57:37.552Z,64.87
2019-04-11T03:58:39.247Z,64.56
2019-04-11T03:59:43.799Z,64.74
2019-04-11T04:00:42.519Z,65.08
2019-04-11T04:01:39.835Z,64.67
2019-04-11T04:02:38.981Z,65.50
2019-04-11T04:03:39.264Z,65.39
2019-04-11T04:04:39.153Z,64.98
2019-04-11T04:05:39.063Z,65.50
2019-04-11T04:06:38.997Z,65.70
2019-04-11T04:07:38.108Z,65.39
2019-04-11T04:08:38.727Z,65.60
2019-04-11T04:09:39.525Z,65.70
2019-04-11T04:10:43.626Z,65.81
2019-04-11T04:11:38.446Z,65.19
2019-04-11T04:12:37.811Z,64.77
2019-04-11T04:13:38.721Z,65.60
2019-04-11T04:14:39.253Z,65.81
2019-04-11T04:15:51.590Z,64.80
2019-04-11T04:16:44.431Z,65.39
2019-04-11T04:17:39.295Z,65.91
2019-04-11T04:18:38.106Z,65.50
2019-04-11T04:19:38.083Z,65.63
2019-04-11T04:20:37.306Z,65.60
2019-04-11T04:21:42.908Z,64.77
2019-04-11T04:22:37.702Z,65.60
2019-04-11T04:23:38.017Z,65.39
2019-04-11T04:24:40.009Z,65.63
2019-04-11T04:25:39.068Z,65.50
2019-04-11T04:26:39.002Z,65.50
2019-04-11T04:27:38.762Z,65.81
2019-04-11T04:28:38.136Z,65.84
2019-04-11T04:29:38.039Z,65.53
2019-04-11T04:30:38.552Z,66.25
2019-04-11T04:31:38.562Z,65.94
2019-04-11T04:32:42.915Z,66.25
2019-04-11T04:33:39.490Z,66.15
2019-04-11T04:34:37.305Z,66.25
2019-04-11T04:35:38.602Z,66.46
2019-04-11T04:36:37.867Z,66.87
2019-04-11T04:37:38.639Z,66.28
2019-04-11T04:38:38.696Z,66.97
2019-04-11T04:39:38.971Z,66.56
2019-04-11T04:40:51.027Z,66.80
2019-04-11T04:41:44.036Z,67.00
2019-04-11T04:42:44.462Z,66.66
2019-04-11T04:43:44.134Z,66.77
2019-04-11T04:44:37.959Z,66.87
2019-04-11T04:45:58.034Z,67.08
2019-04-11T04:46:52.662Z,66.77
2019-04-11T04:47:46.631Z,67.18
2019-04-11T04:48:38.286Z,66.80
2019-04-11T04:49:38.647Z,66.90
2019-04-11T04:50:38.754Z,67.42
2019-04-11T04:51:37.297Z,67.00
2019-04-11T04:52:38.196Z,67.21
2019-04-11T04:53:36.938Z,67.11
2019-04-11T04:54:41.941Z,67.11
2019-04-11T04:55:36.899Z,67.11
2019-04-11T04:56:37.562Z,67.00
2019-04-11T04:57:37.693Z,67.24
2019-04-11T04:58:37.842Z,67.21
2019-04-11T04:59:38.412Z,67.32
2019-04-11T05:00:37.654Z,67.21
2019-04-11T05:01:37.372Z,67.11
2019-04-11T05:02:37.409Z,66.49
2019-04-11T05:03:37.884Z,66.69
2019-04-11T05:04:38.410Z,66.69
2019-04-11T05:05:42.466Z,67.00
2019-04-11T05:06:36.788Z,66.80
2019-04-11T05:07:40.181Z,66.69
2019-04-11T05:08:39.029Z,66.90
2019-04-11T05:09:38.083Z,66.59
2019-04-11T05:10:38.175Z,66.46
2019-04-11T05:11:38.128Z,66.28
2019-04-11T05:12:36.701Z,66.18
2019-04-11T05:13:38.348Z,65.87
2019-04-11T05:14:37.234Z,65.97
2019-04-11T05:15:36.691Z,65.97
2019-04-11T05:16:41.824Z,66.08
2019-04-11T05:17:36.648Z,66.18
2019-04-11T05:18:36.635Z,66.49
2019-04-11T05:19:36.629Z,66.38
2019-04-11T05:20:36.634Z,65.97
2019-04-11T05:21:37.181Z,64.52
2019-04-11T05:22:37.264Z,65.35
2019-04-11T05:23:37.417Z,65.25
2019-04-11T05:24:36.877Z,65.66
2019-04-11T05:25:36.960Z,65.73
2019-04-11T05:26:36.570Z,65.97
2019-04-11T05:27:41.925Z,64.90
2019-04-11T05:28:37.389Z,65.66
2019-04-11T05:29:37.547Z,65.63
2019-04-11T05:30:36.511Z,65.42
2019-04-11T05:31:36.584Z,65.11
2019-04-11T05:32:37.505Z,65.32
2019-04-11T05:33:36.978Z,64.80
2019-04-11T05:34:37.156Z,65.22
2019-04-11T05:35:36.451Z,65.22
2019-04-11T05:36:36.651Z,64.70
2019-04-11T05:37:37.677Z,64.90
2019-04-11T05:38:42.171Z,65.08
2019-04-11T05:39:36.411Z,64.56
2019-04-11T05:40:36.391Z,64.56
2019-04-11T05:41:37.579Z,63.81
2019-04-11T05:42:37.556Z,63.78
2019-04-11T05:43:38.616Z,62.62
2019-04-11T05:44:38.320Z,62.38
2019-04-11T05:45:36.332Z,61.73
2019-04-11T05:46:49.077Z,61.73
2019-04-11T05:47:37.407Z,60.16
2019-04-11T05:48:36.852Z,60.23
2019-04-11T05:49:42.459Z,59.89
2019-04-11T05:50:36.277Z,58.11
2019-04-11T05:51:40.935Z,58.60
2019-04-11T05:52:37.268Z,57.88
2019-04-11T05:53:38.225Z,57.44
2019-04-11T05:54:38.695Z,56.82
2019-04-11T05:55:36.388Z,55.77
2019-04-11T05:56:37.504Z,55.64
2019-04-11T05:57:38.481Z,55.66
2019-04-11T05:58:36.652Z,55.59
2019-04-11T05:59:36.184Z,57.50
2019-04-11T06:00:41.192Z,58.65
2019-04-11T06:01:36.371Z,59.30
2019-04-11T06:02:37.346Z,59.72
2019-04-11T06:03:39.320Z,60.13
2019-04-11T06:04:37.289Z,60.36
2019-04-11T06:05:37.926Z,60.60
2019-04-11T06:06:39.483Z,60.28
2019-04-11T06:07:41.020Z,60.70
2019-04-11T06:08:37.839Z,61.01
2019-04-11T06:09:39.766Z,60.60
2019-04-11T06:10:41.303Z,60.52
2019-04-11T06:11:43.124Z,60.11
2019-04-11T06:12:36.054Z,61.35
2019-04-11T06:13:36.442Z,61.35
2019-04-11T06:14:36.011Z,62.07
2019-04-11T06:15:36.252Z,61.11
2019-04-11T06:16:42.294Z,60.42
2019-04-11T06:17:37.016Z,60.70
2019-04-11T06:18:37.754Z,60.80
2019-04-11T06:19:35.959Z,60.52
2019-04-11T06:20:35.952Z,60.73
2019-04-11T06:21:36.022Z,60.39
2019-04-11T06:22:42.138Z,60.60
2019-04-11T06:23:37.134Z,60.60
2019-04-11T06:24:36.418Z,60.60
2019-04-11T06:25:40.242Z,60.28
2019-04-11T06:26:36.878Z,60.77
2019-04-11T06:27:36.449Z,59.74
2019-04-11T06:28:36.138Z,59.84
2019-04-11T06:29:36.954Z,60.05
2019-04-11T06:30:36.692Z,59.74
2019-04-11T06:31:36.050Z,59.02
2019-04-11T06:32:36.051Z,59.51
2019-04-11T06:33:40.827Z,59.30
2019-04-11T06:34:35.792Z,59.17
2019-04-11T06:35:35.975Z,58.35
2019-04-11T06:36:36.960Z,58.76
2019-04-11T06:37:36.122Z,58.01
2019-04-11T06:38:35.751Z,57.09
2019-04-11T06:39:35.762Z,55.90
2019-04-11T06:40:36.680Z,54.72
2019-04-11T06:41:36.815Z,52.89
2019-04-11T06:42:35.739Z,50.05
2019-04-11T06:43:36.255Z,49.37
2019-04-11T06:44:41.697Z,46.68
2019-04-11T06:45:35.809Z,45.82
2019-04-11T06:46:47.599Z,44.96
2019-04-11T06:47:36.799Z,43.41
2019-04-11T06:48:35.884Z,43.41
2019-04-11T06:49:36.321Z,43.69
2019-04-11T06:50:35.617Z,42.24
2019-04-11T06:51:35.777Z,42.45
2019-04-11T06:52:35.604Z,41.30
2019-04-11T06:53:36.455Z,41.41
2019-04-11T06:54:35.570Z,41.59
2019-04-11T06:55:40.582Z,41.61
2019-04-11T06:56:35.554Z,40.86
2019-04-11T06:57:36.250Z,40.76
2019-04-11T06:58:35.539Z,40.33
2019-04-11T06:59:36.520Z,39.72
2019-04-11T07:00:35.503Z,40.96
2019-04-11T07:01:36.242Z,40.45
2019-04-11T07:02:35.480Z,39.74
2019-04-11T07:03:36.291Z,39.96
2019-04-11T07:04:35.761Z,40.05
2019-04-11T07:05:35.454Z,40.03
2019-04-11T07:06:40.461Z,40.43
2019-04-11T07:07:36.199Z,39.50
2019-04-11T07:08:35.425Z,39.90
2019-04-11T07:09:35.423Z,39.38
2019-04-11T07:10:36.248Z,39.17
2019-04-11T07:11:36.244Z,39.40
2019-04-11T07:12:35.380Z,39.80
2019-04-11T07:13:35.409Z,39.74
2019-04-11T07:14:35.515Z,40.61
2019-04-11T07:15:35.596Z,41.35
2019-04-11T07:16:36.264Z,41.61
2019-04-11T07:17:40.458Z,39.96
2019-04-11T07:18:35.675Z,39.43
2019-04-11T07:19:35.292Z,39.92
2019-04-11T07:20:35.709Z,39.31
2019-04-11T07:21:35.499Z,38.99
2019-04-11T07:22:35.300Z,38.67
2019-04-11T07:23:36.427Z,38.65
2019-04-11T07:24:35.236Z,38.43
2019-04-11T07:25:35.313Z,37.49
2019-04-11T07:26:35.244Z,37.93
2019-04-11T07:27:35.202Z,38.04
2019-04-11T07:28:41.480Z,38.87
2019-04-11T07:29:35.196Z,38.40
2019-04-11T07:30:35.407Z,39.62
2019-04-11T07:31:35.558Z,38.67
2019-04-11T07:32:36.368Z,38.54
2019-04-11T07:33:35.420Z,38.97
2019-04-11T07:34:36.258Z,39.60
2019-04-11T07:35:35.673Z,38.84
2019-04-11T07:36:36.091Z,39.79
2019-04-11T07:37:36.780Z,40.22
2019-04-11T07:38:36.435Z,41.47
2019-04-11T07:39:42.633Z,41.36
2019-04-11T07:40:35.332Z,42.18
2019-04-11T07:41:35.044Z,41.79
2019-04-11T07:42:36.087Z,42.30
2019-04-11T07:43:35.525Z,42.81
2019-04-11T07:44:35.103Z,42.43
2019-04-11T07:45:37.590Z,43.44
2019-04-11T07:46:35.056Z,43.88
2019-04-11T07:47:35.207Z,43.35
2019-04-11T07:48:35.947Z,42.85
2019-04-11T07:49:35.155Z,42.94
2019-04-11T07:50:40.028Z,42.83
2019-04-11T07:51:34.937Z,42.43
2019-04-11T07:52:35.885Z,42.71
2019-04-11T07:53:35.203Z,42.20
2019-04-11T07:54:34.911Z,41.59
2019-04-11T07:55:34.897Z,41.38
2019-04-11T07:56:35.241Z,42.00
2019-04-11T07:57:34.874Z,42.10
2019-04-11T07:58:35.309Z,41.89
2019-04-11T07:59:34.857Z,42.08
2019-04-11T08:00:41.945Z,41.14
2019-04-11T08:01:40.843Z,41.16
2019-04-11T08:02:35.529Z,41.55
2019-04-11T08:03:35.633Z,40.81
2019-04-11T08:04:34.803Z,39.57
2019-04-11T08:05:34.793Z,39.33
2019-04-11T08:06:34.773Z,39.33
2019-04-11T08:07:34.767Z,38.40
2019-04-11T08:08:34.744Z,38.56
2019-04-11T08:09:35.752Z,37.65
2019-04-11T08:10:35.117Z,37.93
2019-04-11T08:11:35.802Z,37.41
2019-04-11T08:12:39.729Z,36.58
2019-04-11T08:13:34.724Z,36.07
2019-04-11T08:14:34.865Z,36.34
2019-04-11T08:15:34.664Z,35.92
2019-04-11T08:16:35.063Z,36.12
2019-04-11T08:17:38.999Z,36.32
2019-04-11T08:18:35.632Z,36.27
2019-04-11T08:19:35.215Z,36.92
2019-04-11T08:20:34.616Z,38.06
2019-04-11T08:21:36.094Z,37.04
2019-04-11T08:22:34.981Z,37.36
2019-04-11T08:23:40.145Z,37.97
2019-04-11T08:24:34.570Z,38.26
2019-04-11T08:25:35.507Z,38.06
2019-04-11T08:26:34.546Z,37.53
2019-04-11T08:27:35.697Z,37.00
2019-04-11T08:28:35.556Z,37.10
2019-04-11T08:29:34.513Z,37.51
2019-04-11T08:30:35.012Z,37.34
2019-04-11T08:31:34.489Z,38.38
2019-04-11T08:32:34.477Z,38.40
2019-04-11T08:33:35.121Z,39.03
2019-04-11T08:34:39.736Z,39.29
2019-04-11T08:35:34.926Z,38.56
2019-04-11T08:36:34.441Z,38.24
2019-04-11T08:37:34.421Z,37.21
2019-04-11T08:38:34.412Z,37.07
2019-04-11T08:39:35.300Z,36.14
2019-04-11T08:40:35.523Z,36.46
2019-04-11T08:41:34.393Z,37.08
2019-04-11T08:42:34.368Z,36.99
2019-04-11T08:43:35.276Z,37.70
2019-04-11T08:44:34.351Z,36.68
2019-04-11T08:45:40.337Z,37.58
2019-04-11T08:46:35.139Z,35.97
2019-04-11T08:47:46.373Z,35.64
2019-04-11T08:48:35.298Z,36.17
2019-04-11T08:49:35.056Z,36.19
2019-04-11T08:50:34.485Z,36.00
2019-04-11T08:51:34.285Z,36.34
2019-04-11T08:52:34.261Z,37.49
2019-04-11T08:53:35.070Z,37.92
2019-04-11T08:54:34.345Z,38.85
2019-04-11T08:55:47.652Z,38.76
2019-04-11T08:56:40.232Z,38.45
2019-04-11T08:57:34.200Z,38.24
2019-04-11T08:58:34.200Z,38.84
2019-04-11T08:59:34.175Z,38.80
2019-04-11T09:00:34.627Z,38.28
2019-04-11T09:01:34.164Z,38.90
2019-04-11T09:02:35.257Z,38.99
2019-04-11T09:03:34.141Z,38.99
2019-04-11T09:04:34.411Z,38.58
2019-04-11T09:05:35.331Z,38.38
2019-04-11T09:06:34.097Z,39.60
2019-04-11T09:07:39.118Z,38.78
2019-04-11T09:08:34.340Z,38.72
2019-04-11T09:09:35.123Z,38.94
2019-04-11T09:10:34.063Z,39.64
2019-04-11T09:11:36.669Z,38.21
2019-04-11T09:12:34.244Z,39.15
2019-04-11T09:13:34.025Z,39.84
2019-04-11T09:14:34.013Z,39.84
2019-04-11T09:15:35.155Z,39.23
2019-04-11T09:16:34.055Z,39.23
2019-04-11T09:17:34.498Z,39.25
2019-04-11T09:18:38.994Z,39.06
2019-04-11T09:19:34.819Z,40.39
2019-04-11T09:20:34.061Z,39.47
2019-04-11T09:21:34.155Z,39.45
2019-04-11T09:22:33.933Z,38.62
2019-04-11T09:23:33.907Z,38.72
2019-04-11T09:24:34.638Z,37.56
2019-04-11T09:25:34.954Z,37.14
2019-04-11T09:26:34.154Z,36.80
2019-04-11T09:27:33.867Z,35.70
2019-04-11T09:28:33.854Z,36.00
2019-04-11T09:29:39.875Z,35.70
2019-04-11T09:30:33.828Z,35.27
2019-04-11T09:31:33.867Z,34.33
2019-04-11T09:32:33.983Z,33.50
2019-04-11T09:33:33.807Z,33.73
2019-04-11T09:34:33.838Z,34.65
2019-04-11T09:35:33.773Z,35.27
2019-04-11T09:36:33.766Z,35.58
2019-04-11T09:37:33.910Z,34.34
2019-04-11T09:38:34.695Z,34.34
2019-04-11T09:39:33.732Z,34.04
2019-04-11T09:40:39.602Z,34.44
2019-04-11T09:41:33.714Z,34.68
2019-04-11T09:42:34.584Z,35.41
2019-04-11T09:43:33.951Z,35.61
2019-04-11T09:44:33.676Z,35.71
2019-04-11T09:45:33.666Z,35.51
2019-04-11T09:46:34.499Z,36.12
2019-04-11T09:47:33.646Z,35.51
2019-04-11T09:48:33.787Z,36.31
2019-04-11T09:49:33.623Z,35.22
2019-04-11T09:50:34.212Z,36.25
2019-04-11T09:51:38.648Z,37.29
2019-04-11T09:52:33.595Z,37.19
2019-04-11T09:53:34.499Z,36.87
2019-04-11T09:54:34.762Z,36.44
2019-04-11T09:55:33.550Z,36.14
2019-04-11T09:56:33.555Z,36.14
2019-04-11T09:57:34.673Z,35.93
2019-04-11T09:58:33.751Z,36.65
2019-04-11T09:59:33.533Z,36.04
2019-04-11T10:00:34.647Z,36.04
2019-04-11T10:01:33.487Z,35.92
2019-04-11T10:02:39.654Z,35.61
2019-04-11T10:03:34.519Z,35.61
2019-04-11T10:04:33.917Z,35.80
2019-04-11T10:05:34.157Z,35.31
2019-04-11T10:06:34.440Z,35.71
2019-04-11T10:07:33.570Z,35.51
2019-04-11T10:08:33.406Z,35.61
2019-04-11T10:09:33.434Z,36.22
2019-04-11T10:10:33.387Z,36.12
2019-04-11T10:11:34.507Z,35.61
2019-04-11T10:12:33.366Z,35.22
2019-04-11T10:13:38.377Z,35.54
2019-04-11T10:14:33.515Z,35.64
2019-04-11T10:15:33.770Z,35.83
2019-04-11T10:16:33.895Z,35.83
2019-04-11T10:17:33.922Z,35.51
2019-04-11T10:18:37.297Z,34.48
2019-04-11T10:19:34.297Z,34.38
2019-04-11T10:20:33.273Z,33.58
2019-04-11T10:21:33.271Z,34.29
2019-04-11T10:22:34.075Z,34.07
2019-04-11T10:23:34.519Z,33.97
2019-04-11T10:24:38.803Z,33.04
2019-04-11T10:25:33.227Z,33.44
2019-04-11T10:26:34.131Z,33.33
2019-04-11T10:27:33.206Z,32.93
2019-04-11T10:28:33.473Z,34.07
2019-04-11T10:29:34.511Z,32.46
2019-04-11T10:30:33.543Z,33.39
2019-04-11T10:31:33.149Z,33.17
2019-04-11T10:32:33.173Z,33.58
2019-04-11T10:33:33.190Z,33.98
2019-04-11T10:34:33.500Z,33.37
2019-04-11T10:35:38.676Z,33.78
2019-04-11T10:36:33.106Z,33.37
2019-04-11T10:37:33.866Z,33.37
2019-04-11T10:38:33.099Z,33.56
2019-04-11T10:39:33.356Z,33.15
2019-04-11T10:40:34.340Z,33.05
2019-04-11T10:41:33.044Z,32.63
2019-04-11T10:42:33.048Z,31.68
2019-04-11T10:43:34.122Z,31.82
2019-04-11T10:44:33.987Z,31.79
2019-04-11T10:45:32.997Z,31.86
2019-04-11T10:46:38.011Z,30.73
2019-04-11T10:47:33.315Z,30.60
2019-04-11T10:48:39.275Z,29.70
2019-04-11T10:49:34.490Z,30.55
2019-04-11T10:50:34.037Z,30.66
2019-04-11T10:51:33.813Z,31.15
2019-04-11T10:52:34.151Z,31.74
2019-04-11T10:53:33.301Z,30.70
2019-04-11T10:54:32.915Z,30.19
2019-04-11T10:55:33.623Z,30.47
2019-04-11T10:56:32.874Z,30.27
2019-04-11T10:57:38.242Z,30.18
2019-04-11T10:58:33.113Z,30.67
2019-04-11T10:59:32.849Z,30.50
2019-04-11T11:00:33.475Z,29.99
2019-04-11T11:01:33.804Z,30.74
2019-04-11T11:02:33.624Z,30.74
2019-04-11T11:03:33.995Z,31.35
2019-04-11T11:04:32.842Z,31.37
2019-04-11T11:05:32.775Z,31.26
2019-04-11T11:06:32.772Z,31.80
2019-04-11T11:07:32.985Z,31.89
2019-04-11T11:08:37.766Z,32.50
2019-04-11T11:09:32.734Z,33.01
2019-04-11T11:10:33.290Z,33.50
2019-04-11T11:11:32.709Z,33.29
2019-04-11T11:12:33.025Z,32.38
2019-04-11T11:13:32.688Z,31.98
2019-04-11T11:14:32.674Z,32.40
2019-04-11T11:15:33.789Z,32.80
2019-04-11T11:16:34.121Z,33.09
2019-04-11T11:17:54.529Z,33.91
2019-04-11T11:18:53.823Z,35.92
2019-04-11T11:19:49.780Z,35.78
2019-04-11T11:20:38.636Z,31.78
2019-04-11T11:21:35.455Z,31.26
2019-04-11T11:22:34.462Z,31.45
2019-04-11T11:23:33.089Z,31.55
2019-04-11T11:24:33.671Z,33.05
2019-04-11T11:25:33.029Z,30.36
2019-04-11T11:26:33.746Z,29.96
2019-04-11T11:27:32.542Z,31.30
2019-04-11T11:28:32.542Z,31.40
2019-04-11T11:29:32.510Z,31.19
2019-04-11T11:30:37.734Z,30.77
2019-04-11T11:31:32.483Z,30.57
2019-04-11T11:32:33.610Z,30.86
2019-04-11T11:33:32.471Z,30.16
2019-04-11T11:34:32.695Z,30.67
2019-04-11T11:35:35.955Z,30.24
2019-04-11T11:36:37.472Z,30.54
2019-04-11T11:37:33.312Z,29.63
2019-04-11T11:38:33.607Z,29.53
2019-04-11T11:39:33.363Z,28.91
2019-04-11T11:40:32.388Z,29.11
2019-04-11T11:41:38.525Z,29.20
2019-04-11T11:42:32.512Z,28.28
2019-04-11T11:43:32.965Z,27.97
2019-04-11T11:44:32.946Z,27.78
2019-04-11T11:45:33.242Z,28.98
2019-04-11T11:46:32.320Z,28.36
2019-04-11T11:47:35.637Z,27.36
2019-04-11T11:48:33.443Z,27.64
2019-04-11T11:49:44.624Z,27.63
2019-04-11T11:50:34.510Z,28.35
2019-04-11T11:51:33.292Z,28.48
2019-04-11T11:52:37.563Z,28.80
2019-04-11T11:53:33.044Z,29.13
2019-04-11T11:54:32.468Z,29.33
2019-04-11T11:55:33.457Z,29.34
2019-04-11T11:56:32.233Z,29.54
2019-04-11T11:57:33.009Z,29.66
2019-04-11T11:58:33.306Z,30.07
2019-04-11T11:59:32.257Z,30.36
2019-04-11T12:00:33.321Z,29.24
2019-04-11T12:01:32.156Z,29.25
2019-04-11T12:02:32.737Z,29.35
2019-04-11T12:03:38.907Z,29.95
2019-04-11T12:04:35.319Z,29.74
2019-04-11T12:05:32.691Z,29.43
2019-04-11T12:06:33.274Z,28.82
2019-04-11T12:07:37.002Z,29.21
2019-04-11T12:08:33.090Z,28.29
2019-04-11T12:09:32.063Z,27.50
2019-04-11T12:10:33.622Z,29.52
2019-04-11T12:11:32.407Z,28.08
2019-04-11T12:12:32.038Z,27.44
2019-04-11T12:13:32.654Z,27.04
2019-04-11T12:14:37.300Z,26.41
2019-04-11T12:15:32.968Z,26.60
2019-04-11T12:16:33.102Z,25.88
2019-04-11T12:17:34.661Z,25.95
2019-04-11T12:18:33.035Z,25.84
2019-04-11T12:19:42.659Z,24.94
2019-04-11T12:20:32.969Z,24.82
2019-04-11T12:21:31.932Z,25.33
2019-04-11T12:22:32.738Z,25.52
2019-04-11T12:23:43.848Z,25.12
2019-04-11T12:24:32.914Z,24.32
2019-04-11T12:25:37.019Z,24.61
2019-04-11T12:26:33.726Z,24.12
2019-04-11T12:27:32.971Z,24.73
2019-04-11T12:28:33.158Z,23.82
2019-04-11T12:29:32.254Z,24.32
2019-04-11T12:30:33.630Z,23.91
2019-04-11T12:31:34.943Z,24.11
2019-04-11T12:32:32.671Z,24.10
2019-04-11T12:33:31.802Z,24.32
2019-04-11T12:34:32.480Z,24.51
2019-04-11T12:35:32.597Z,23.90
2019-04-11T12:36:37.080Z,23.69
2019-04-11T12:37:31.764Z,23.69
2019-04-11T12:38:31.745Z,23.69
2019-04-11T12:39:31.821Z,23.69
2019-04-11T12:40:31.736Z,23.38
2019-04-11T12:41:31.739Z,24.40
2019-04-11T12:42:31.708Z,24.11
2019-04-11T12:43:32.180Z,24.93
2019-04-11T12:44:31.766Z,25.23
2019-04-11T12:45:31.682Z,24.71
2019-04-11T12:46:31.663Z,24.71
2019-04-11T12:47:38.560Z,24.71
2019-04-11T12:48:31.659Z,24.62
2019-04-11T12:49:31.634Z,24.11
2019-04-11T12:50:31.640Z,24.10
2019-04-11T12:51:34.277Z,24.31
2019-04-11T12:52:31.608Z,24.73
2019-04-11T12:53:31.587Z,25.14
2019-04-11T12:54:31.590Z,25.46